createdAt,value
2022-11-05T00:00:36.409Z,6.70
2022-11-05T00:03:22.062Z,7.43
2022-11-05T00:06:11.303Z,10.60
2022-11-05T00:08:56.902Z,8.45
2022-11-05T00:11:43.699Z,11.07
2022-11-05T00:14:29.164Z,6.18
2022-11-05T00:16:55.768Z,8.07
2022-11-05T00:19:22.513Z,8.10
2022-11-05T00:22:09.515Z,8.98
2022-11-05T00:24:55.791Z,8.63
2022-11-05T00:27:23.225Z,5.88
2022-11-05T00:29:49.964Z,6.30
2022-11-05T00:32:16.517Z,8.30
2022-11-05T00:34:43.076Z,7.93
2022-11-05T00:37:09.802Z,8.15
2022-11-05T00:39:36.436Z,10.88
2022-11-05T00:42:26.337Z,8.55
2022-11-05T00:45:01.506Z,8.55
2022-11-05T00:47:51.172Z,8.32
2022-11-05T00:50:21.361Z,9.02
2022-11-05T00:52:55.557Z,12.38
2022-11-05T00:55:28.733Z,8.80
2022-11-05T00:58:00.700Z,9.48
2022-11-05T01:03:01.766Z,11.55
2022-11-05T01:05:34.029Z,8.48
2022-11-05T01:08:04.677Z,9.95
2022-11-05T01:10:31.579Z,10.13
2022-11-05T01:12:59.055Z,10.05
2022-11-05T01:15:25.641Z,8.80
2022-11-05T01:17:52.501Z,8.73
2022-11-05T01:20:19.147Z,12.23
2022-11-05T01:22:45.635Z,7.28
2022-11-05T01:25:12.310Z,9.85
2022-11-05T01:27:39.167Z,7.88
2022-11-05T01:30:07.980Z,7.18
2022-11-05T01:32:36.247Z,8.07
2022-11-05T01:35:07.187Z,6.55
2022-11-05T01:37:35.079Z,9.57
2022-11-05T01:40:02.169Z,8.27
2022-11-05T01:42:32.417Z,8.27
2022-11-05T01:45:04.000Z,10.10
2022-11-05T01:47:49.063Z,11.27
2022-11-05T01:50:27.321Z,6.90
2022-11-05T01:53:00.802Z,7.38
2022-11-05T01:55:31.498Z,8.85
2022-11-05T01:58:00.421Z,8.50
2022-11-05T02:00:28.138Z,8.55
2022-11-05T02:02:54.884Z,8.35
2022-11-05T02:05:22.250Z,7.10
2022-11-05T02:07:49.676Z,8.93
2022-11-05T02:10:18.128Z,8.32
2022-11-05T02:12:48.549Z,9.70
2022-11-05T02:15:35.742Z,9.20
2022-11-05T02:18:04.944Z,8.18
2022-11-05T02:20:54.408Z,7.53
2022-11-05T02:23:58.527Z,11.05
2022-11-05T02:26:37.301Z,9.40
2022-11-05T02:29:29.388Z,10.77
2022-11-05T02:32:04.989Z,13.73
2022-11-05T02:34:37.493Z,8.85
2022-11-05T02:37:15.622Z,10.43
2022-11-05T02:40:11.501Z,12.25
2022-11-05T02:42:56.763Z,9.20
2022-11-05T02:45:41.812Z,12.90
2022-11-05T02:48:24.462Z,11.27
2022-11-05T02:51:25.243Z,8.60
2022-11-05T02:54:01.925Z,9.73
2022-11-05T02:56:39.329Z,10.27
2022-11-05T02:59:05.825Z,13.88
2022-11-05T03:01:32.514Z,10.73
2022-11-05T03:04:04.835Z,8.38
2022-11-05T03:06:52.707Z,10.68
2022-11-05T03:09:38.018Z,8.35
2022-11-05T03:12:16.836Z,9.05
2022-11-05T03:15:01.911Z,10.30
2022-11-05T03:17:36.878Z,7.65
2022-11-05T03:20:24.113Z,8.52
2022-11-05T03:23:26.379Z,11.35
2022-11-05T03:26:05.525Z,11.02
2022-11-05T03:28:35.613Z,8.05
2022-11-05T03:31:04.628Z,9.73
2022-11-05T03:33:38.545Z,10.10
2022-11-05T03:36:16.248Z,10.13
2022-11-05T03:38:46.892Z,8.18
2022-11-05T03:41:17.429Z,9.85
2022-11-05T03:43:50.862Z,9.52
2022-11-05T03:46:24.627Z,11.27
2022-11-05T03:48:55.835Z,9.15
2022-11-05T03:51:32.056Z,9.68
2022-11-05T03:54:01.155Z,11.05
2022-11-05T03:56:38.692Z,9.27
2022-11-05T03:59:07.674Z,9.73
2022-11-05T04:01:36.996Z,10.68
2022-11-05T04:04:07.897Z,10.38
2022-11-05T04:06:53.840Z,12.30
2022-11-05T04:09:41.150Z,9.68
2022-11-05T04:12:29.199Z,10.23
2022-11-05T04:14:56.284Z,9.07
2022-11-05T04:17:22.839Z,11.93
2022-11-05T04:20:10.925Z,10.68
2022-11-05T04:23:01.836Z,9.07
2022-11-05T04:25:37.703Z,10.57
2022-11-05T04:28:06.386Z,10.10
2022-11-05T04:30:41.657Z,8.88
2022-11-05T04:33:12.322Z,9.35
2022-11-05T04:35:42.981Z,9.10
2022-11-05T04:38:13.329Z,9.25
2022-11-05T04:40:40.664Z,10.13
2022-11-05T04:43:15.056Z,9.48
2022-11-05T04:45:44.818Z,8.95
2022-11-05T04:48:13.444Z,10.90
2022-11-05T04:50:40.118Z,7.00
2022-11-05T04:53:06.913Z,6.95
2022-11-05T04:55:35.434Z,10.65
2022-11-05T04:58:02.044Z,10.20
2022-11-05T05:00:28.794Z,9.65
2022-11-05T05:02:55.410Z,12.10
2022-11-05T05:05:23.197Z,10.48
2022-11-05T05:07:49.989Z,10.02
2022-11-05T05:10:16.852Z,9.50
2022-11-05T05:12:43.566Z,10.15
2022-11-05T05:15:10.526Z,10.38
2022-11-05T05:17:37.154Z,12.30
2022-11-05T05:20:22.620Z,10.45
2022-11-05T05:22:55.694Z,8.82
2022-11-05T05:25:22.728Z,10.00
2022-11-05T05:27:49.372Z,8.60
2022-11-05T05:30:16.154Z,13.57
2022-11-05T05:32:44.831Z,9.38
2022-11-05T05:35:16.013Z,10.05
2022-11-05T05:37:43.007Z,8.77
2022-11-05T05:40:10.303Z,14.13
2022-11-05T05:42:42.684Z,10.40
2022-11-05T05:45:12.132Z,7.38
2022-11-05T05:47:38.872Z,9.57
2022-11-05T05:50:05.870Z,7.65
2022-11-05T05:52:34.517Z,7.65
2022-11-05T05:55:03.914Z,7.35
2022-11-05T05:57:31.882Z,8.57
2022-11-05T06:00:01.983Z,8.35
2022-11-05T06:02:32.720Z,8.77
2022-11-05T06:04:59.703Z,11.65
2022-11-05T06:07:26.350Z,8.98
2022-11-05T06:09:52.956Z,7.93
2022-11-05T06:12:19.438Z,9.52
2022-11-05T06:14:45.946Z,7.32
2022-11-05T06:17:15.771Z,10.50
2022-11-05T06:19:44.443Z,8.88
2022-11-05T06:22:11.243Z,7.90
2022-11-05T06:24:38.153Z,11.57
2022-11-05T06:27:05.053Z,9.70
2022-11-05T06:29:31.609Z,7.75
2022-11-05T06:31:58.058Z,7.20
2022-11-05T06:34:24.629Z,7.43
2022-11-05T06:36:51.202Z,7.43
2022-11-05T06:39:17.689Z,10.27
2022-11-05T06:42:12.027Z,7.60
2022-11-05T06:44:31.227Z,8.82
2022-11-05T06:46:59.814Z,28.15
2022-11-05T06:49:26.606Z,31.38
2022-11-05T06:51:55.907Z,17.02
2022-11-05T06:54:22.384Z,8.60
2022-11-05T06:56:48.834Z,9.25
2022-11-05T06:59:15.634Z,10.38
2022-11-05T07:01:42.407Z,7.95
2022-11-05T07:04:08.966Z,9.20
2022-11-05T07:06:37.095Z,7.30
2022-11-05T07:09:04.465Z,8.02
2022-11-05T07:11:42.809Z,8.00
2022-11-05T07:14:09.316Z,11.70
2022-11-05T07:16:35.905Z,7.82
2022-11-05T07:19:02.731Z,6.95
2022-11-05T07:21:29.481Z,8.27
2022-11-05T07:23:55.962Z,7.35
2022-11-05T07:26:22.440Z,6.10
2022-11-05T07:28:48.981Z,9.23
2022-11-05T07:31:15.614Z,5.72
2022-11-05T07:33:42.173Z,5.82
2022-11-05T07:36:09.074Z,7.22
2022-11-05T07:38:35.613Z,9.23
2022-11-05T07:41:02.152Z,5.82
2022-11-05T07:43:28.712Z,6.15
2022-11-05T07:45:55.229Z,5.93
2022-11-05T07:48:21.770Z,6.50
2022-11-05T07:50:56.954Z,7.88
2022-11-05T07:53:23.492Z,5.82
2022-11-05T07:55:52.578Z,10.20
2022-11-05T07:58:25.154Z,6.22
2022-11-05T08:00:51.807Z,8.45
2022-11-05T08:03:19.432Z,8.57
2022-11-05T08:05:48.093Z,6.45
2022-11-05T08:08:17.248Z,5.07
2022-11-05T08:10:44.185Z,5.70
2022-11-05T08:13:12.070Z,5.90
2022-11-05T08:15:39.342Z,5.30
2022-11-05T08:18:09.085Z,12.23
2022-11-05T08:20:36.958Z,5.20
2022-11-05T08:23:03.570Z,9.43
2022-11-05T08:25:35.254Z,5.22
2022-11-05T08:28:04.612Z,6.57
2022-11-05T08:30:32.321Z,5.32
2022-11-05T08:33:04.296Z,5.93
2022-11-05T08:38:02.781Z,5.55
2022-11-05T08:40:31.555Z,5.15
2022-11-05T08:43:04.537Z,6.38
2022-11-05T08:45:32.052Z,4.32
2022-11-05T08:47:59.917Z,4.20
2022-11-05T08:50:29.438Z,6.00
2022-11-05T08:52:59.913Z,4.63
2022-11-05T08:55:29.205Z,5.68
2022-11-05T08:58:04.856Z,4.65
2022-11-05T09:00:34.417Z,4.38
2022-11-05T09:03:02.743Z,4.45
2022-11-05T09:05:31.227Z,7.22
2022-11-05T09:08:01.338Z,4.28
2022-11-05T09:10:29.081Z,4.15
2022-11-05T09:12:56.205Z,6.95
2022-11-05T09:15:23.531Z,3.45
2022-11-05T09:17:53.309Z,3.40
2022-11-05T09:20:19.851Z,5.03
2022-11-05T09:22:49.944Z,5.72
2022-11-05T09:25:16.703Z,8.02
2022-11-05T09:27:44.030Z,5.40
2022-11-05T09:30:14.903Z,5.72
2022-11-05T09:32:42.187Z,7.55
2022-11-05T09:35:10.033Z,3.65
2022-11-05T09:37:40.046Z,3.58
2022-11-05T09:40:07.248Z,4.05
2022-11-05T09:42:50.281Z,7.68
2022-11-05T09:45:22.579Z,4.78
2022-11-05T09:48:01.381Z,5.15
2022-11-05T09:50:35.994Z,4.63
2022-11-05T09:53:04.575Z,5.18
2022-11-05T09:55:41.407Z,3.63
2022-11-05T09:58:22.122Z,5.65
2022-11-05T10:00:57.237Z,5.72
2022-11-05T10:03:28.125Z,3.63
2022-11-05T10:06:05.961Z,3.92
2022-11-05T10:08:38.593Z,5.45
2022-11-05T10:11:16.556Z,5.40
2022-11-05T10:13:51.484Z,7.53
2022-11-05T10:16:28.735Z,3.75
2022-11-05T10:19:07.450Z,6.70
2022-11-05T10:22:05.641Z,5.10
2022-11-05T10:24:29.745Z,5.82
2022-11-05T10:26:57.487Z,7.07
2022-11-05T10:29:30.340Z,2.50
2022-11-05T10:31:59.109Z,3.72
2022-11-05T10:34:34.904Z,3.03
2022-11-05T10:37:01.958Z,5.35
2022-11-05T10:39:36.349Z,5.10
2022-11-05T10:42:24.342Z,3.05
2022-11-05T10:45:06.921Z,3.63
2022-11-05T10:47:52.396Z,7.53
2022-11-05T10:50:23.706Z,3.03
2022-11-05T10:52:55.984Z,2.97
2022-11-05T10:55:28.422Z,8.70
2022-11-05T10:58:01.322Z,8.70
2022-11-05T11:00:28.549Z,9.27
2022-11-05T11:03:01.255Z,3.58
2022-11-05T11:05:34.002Z,1.65
2022-11-05T11:08:12.388Z,3.78
2022-11-05T11:10:50.420Z,2.20
2022-11-05T11:13:26.177Z,2.05
2022-11-05T11:15:53.590Z,3.15
2022-11-05T11:18:41.745Z,2.05
2022-11-05T11:21:27.215Z,3.53
2022-11-05T11:23:54.831Z,4.35
2022-11-05T11:26:24.739Z,2.10
2022-11-05T11:29:26.348Z,3.40
2022-11-05T11:32:01.044Z,3.40
2022-11-05T11:34:35.042Z,3.70
2022-11-05T11:37:12.904Z,3.30
2022-11-05T11:39:54.686Z,4.43
2022-11-05T11:42:33.928Z,4.10
2022-11-05T11:45:09.169Z,1.90
2022-11-05T11:47:35.838Z,2.00
2022-11-05T11:50:03.131Z,2.55
2022-11-05T11:52:35.698Z,3.17
2022-11-05T11:55:22.695Z,5.60
2022-11-05T11:57:52.331Z,2.22
2022-11-05T12:00:20.807Z,4.25
2022-11-05T12:03:18.979Z,2.15
2022-11-05T12:06:01.736Z,2.38
2022-11-05T12:09:06.225Z,4.70
2022-11-05T12:11:52.483Z,2.45
2022-11-05T12:14:46.190Z,1.33
2022-11-05T12:17:21.972Z,2.25
2022-11-05T12:19:51.318Z,1.77
2022-11-05T12:22:17.836Z,2.78
2022-11-05T12:25:02.499Z,3.42
2022-11-05T12:27:37.839Z,3.95
2022-11-05T12:30:20.092Z,2.40
2022-11-05T12:33:08.882Z,1.83
2022-11-05T12:35:58.271Z,4.47
2022-11-05T12:38:43.598Z,2.50
2022-11-05T12:41:52.850Z,2.67
2022-11-05T12:45:02.426Z,5.47
2022-11-05T12:47:31.911Z,2.78
2022-11-05T12:50:16.799Z,1.95
2022-11-05T12:53:31.074Z,4.10
2022-11-05T12:56:02.541Z,1.70
2022-11-05T12:58:35.762Z,1.80
2022-11-05T13:01:15.964Z,1.25
2022-11-05T13:03:47.032Z,2.60
2022-11-05T13:06:17.329Z,2.03
2022-11-05T13:08:47.995Z,2.63
2022-11-05T13:11:20.552Z,1.80
2022-11-05T13:14:18.366Z,2.60
2022-11-05T13:16:50.722Z,4.45
2022-11-05T13:19:33.213Z,1.98
2022-11-05T13:22:14.655Z,2.30
2022-11-05T13:24:50.330Z,1.60
2022-11-05T13:27:25.728Z,2.70
2022-11-05T13:30:07.193Z,5.90
2022-11-05T13:32:41.334Z,2.22
2022-11-05T13:35:17.204Z,3.22
2022-11-05T13:38:06.021Z,3.42
2022-11-05T13:40:49.171Z,6.20
2022-11-05T13:43:40.991Z,3.13
2022-11-05T13:46:51.288Z,2.80
2022-11-05T13:49:41.734Z,4.20
2022-11-05T13:52:31.885Z,2.92
2022-11-05T13:55:15.358Z,4.75
2022-11-05T13:57:57.812Z,7.47
2022-11-05T14:00:29.242Z,2.95
2022-11-05T14:03:14.197Z,3.08
2022-11-05T14:05:43.049Z,3.00
2022-11-05T14:08:12.829Z,2.60
2022-11-05T14:10:47.589Z,3.80
2022-11-05T14:13:31.943Z,3.80
2022-11-05T14:16:09.125Z,3.03
2022-11-05T14:18:44.610Z,4.25
2022-11-05T14:21:32.872Z,8.32
2022-11-05T14:24:27.903Z,2.92
2022-11-05T14:27:03.472Z,2.08
2022-11-05T14:29:56.505Z,3.28
2022-11-05T14:32:44.130Z,3.20
2022-11-05T14:35:16.981Z,7.60
2022-11-05T14:38:27.073Z,4.85
2022-11-05T14:41:04.011Z,2.83
2022-11-05T14:43:34.047Z,6.35
2022-11-05T14:46:10.657Z,3.28
2022-11-05T14:48:37.652Z,6.43
2022-11-05T14:51:38.132Z,2.13
2022-11-05T14:54:07.090Z,2.20
2022-11-05T14:56:56.354Z,3.45
2022-11-05T14:59:29.235Z,2.08
2022-11-05T15:02:03.853Z,3.00
2022-11-05T15:04:37.111Z,1.80
2022-11-05T15:07:03.766Z,4.43
2022-11-05T15:09:59.746Z,3.05
2022-11-05T15:12:46.699Z,2.70
2022-11-05T15:15:21.422Z,4.60
2022-11-05T15:17:51.321Z,2.67
2022-11-05T15:20:22.182Z,2.90
2022-11-05T15:22:55.174Z,2.83
2022-11-05T15:25:31.149Z,2.97
2022-11-05T15:28:10.138Z,5.63
2022-11-05T15:30:37.130Z,2.42
2022-11-05T15:33:21.291Z,5.30
2022-11-05T15:35:47.963Z,2.92
2022-11-05T15:38:26.417Z,1.88
2022-11-05T15:41:24.314Z,1.80
2022-11-05T15:43:51.609Z,2.28
2022-11-05T15:46:30.243Z,2.08
2022-11-05T15:49:06.605Z,1.92
2022-11-05T15:51:33.750Z,1.38
2022-11-05T15:56:58.146Z,2.85
2022-11-05T15:59:27.199Z,2.28
2022-11-05T16:02:02.130Z,2.60
2022-11-05T16:04:35.224Z,2.15
2022-11-05T16:07:13.493Z,4.00
2022-11-05T16:09:43.915Z,3.45
2022-11-05T16:12:24.203Z,2.80
2022-11-05T16:15:00.137Z,2.42
2022-11-05T16:17:31.421Z,2.60
2022-11-05T16:19:58.157Z,2.13
2022-11-05T16:22:44.129Z,5.97
2022-11-05T16:25:31.264Z,2.15
2022-11-05T16:27:59.910Z,3.10
2022-11-05T16:30:26.822Z,5.78
2022-11-05T16:32:54.105Z,4.18
2022-11-05T16:35:23.414Z,6.53
2022-11-05T16:37:52.396Z,3.90
2022-11-05T16:40:25.527Z,5.05
2022-11-05T16:42:57.660Z,4.85
2022-11-05T16:45:25.436Z,5.82
2022-11-05T16:47:55.101Z,5.35
2022-11-05T16:50:32.646Z,6.60
2022-11-05T16:52:59.269Z,10.25
2022-11-05T16:55:26.741Z,8.82
2022-11-05T16:57:55.755Z,8.52
2022-11-05T17:00:29.884Z,4.78
2022-11-05T17:02:56.597Z,6.38
2022-11-05T17:05:29.400Z,6.72
2022-11-05T17:07:56.734Z,9.55
2022-11-05T17:10:26.135Z,9.38
2022-11-05T17:12:53.889Z,7.07
2022-11-05T17:15:26.867Z,9.82
2022-11-05T17:17:56.079Z,6.50
2022-11-05T17:20:28.984Z,11.75
2022-11-05T17:22:57.725Z,11.88
2022-11-05T17:25:25.929Z,15.32
2022-11-05T17:27:54.449Z,10.73
2022-11-05T17:30:22.043Z,12.77
2022-11-05T17:32:49.728Z,14.60
2022-11-05T17:35:16.562Z,11.50
2022-11-05T17:37:43.088Z,12.20
2022-11-05T17:40:14.249Z,14.60
2022-11-05T17:42:40.725Z,14.23
2022-11-05T17:45:07.893Z,12.50
2022-11-05T17:47:34.651Z,13.45
2022-11-05T17:50:01.116Z,15.45
2022-11-05T17:52:28.881Z,16.33
2022-11-05T17:54:55.515Z,17.40
2022-11-05T17:57:25.112Z,17.85
2022-11-05T17:59:51.764Z,12.23
2022-11-05T18:02:18.507Z,11.43
2022-11-05T18:04:45.644Z,12.10
2022-11-05T18:07:16.562Z,14.98
2022-11-05T18:09:43.509Z,10.90
2022-11-05T18:12:12.398Z,16.27
2022-11-05T18:14:39.115Z,17.33
2022-11-05T18:17:05.626Z,17.05
2022-11-05T18:19:32.394Z,17.00
2022-11-05T18:25:44.115Z,21.30
2022-11-05T18:28:14.431Z,16.00
2022-11-05T18:30:42.042Z,17.70
2022-11-05T18:33:09.477Z,20.63
2022-11-05T18:35:45.556Z,15.20
2022-11-05T18:38:14.320Z,14.60
2022-11-05T18:40:42.474Z,17.98
2022-11-05T18:43:11.775Z,14.85
2022-11-05T18:45:38.934Z,19.23
2022-11-05T18:48:06.616Z,14.10
2022-11-05T18:50:33.430Z,13.95
2022-11-05T18:53:00.313Z,12.68
2022-11-05T18:55:27.133Z,16.73
2022-11-05T18:57:57.865Z,13.50
2022-11-05T19:00:34.494Z,12.20
2022-11-05T19:03:03.849Z,14.63
2022-11-05T19:05:30.667Z,12.45
2022-11-05T19:07:57.954Z,13.55
2022-11-05T19:10:25.129Z,15.98
2022-11-05T19:12:52.258Z,16.15
2022-11-05T19:15:21.392Z,16.35
2022-11-05T19:17:48.111Z,12.40
2022-11-05T19:20:15.147Z,13.27
2022-11-05T19:22:44.930Z,16.55
2022-11-05T19:25:14.562Z,12.77
2022-11-05T19:27:42.617Z,17.77
2022-11-05T19:30:09.755Z,16.80
2022-11-05T19:32:36.276Z,10.05
2022-11-05T19:35:02.860Z,16.58
2022-11-05T19:37:29.390Z,13.88
2022-11-05T19:39:55.885Z,15.80
2022-11-05T19:42:22.426Z,15.95
2022-11-05T19:44:51.122Z,12.15
2022-11-05T19:47:17.873Z,15.55
2022-11-05T19:49:45.970Z,14.20
2022-11-05T19:52:16.561Z,14.18
2022-11-05T19:54:46.284Z,17.80
2022-11-05T19:57:13.382Z,18.63
2022-11-05T19:59:42.686Z,15.15
2022-11-05T20:02:16.262Z,13.02
2022-11-05T20:04:43.285Z,18.50
2022-11-05T20:07:12.828Z,11.77
2022-11-05T20:09:39.435Z,14.40
2022-11-05T20:12:06.253Z,12.57
2022-11-05T20:14:35.871Z,11.52
2022-11-05T20:17:02.414Z,10.75
2022-11-05T20:19:29.016Z,10.43
2022-11-05T20:22:02.038Z,13.38
2022-11-05T20:24:28.921Z,9.38
2022-11-05T20:26:59.117Z,10.93
2022-11-05T20:29:32.139Z,12.38
2022-11-05T20:32:02.431Z,9.98
2022-11-05T20:34:36.345Z,13.27
2022-11-05T20:37:03.261Z,11.88
2022-11-05T20:39:30.399Z,10.75
2022-11-05T20:42:02.734Z,11.93
2022-11-05T20:44:29.351Z,12.57
2022-11-05T20:46:56.646Z,11.23
2022-11-05T20:49:25.622Z,10.75
2022-11-05T20:51:52.848Z,8.00
2022-11-05T20:54:21.059Z,13.35
2022-11-05T20:56:48.252Z,10.00
2022-11-05T20:59:15.028Z,9.13
2022-11-05T21:01:41.954Z,11.25
2022-11-05T21:04:08.841Z,11.00
2022-11-05T21:06:35.861Z,9.95
2022-11-05T21:09:03.696Z,11.35
2022-11-05T21:11:50.325Z,13.25
2022-11-05T21:14:20.194Z,13.63
2022-11-05T21:16:51.008Z,12.10
2022-11-05T21:19:24.739Z,12.07
2022-11-05T21:21:51.352Z,11.63
2022-11-05T21:24:19.384Z,13.93
2022-11-05T21:26:47.157Z,13.40
2022-11-05T21:29:15.335Z,11.70
2022-11-05T21:31:43.723Z,10.52
2022-11-05T21:34:10.860Z,13.18
2022-11-05T21:36:37.604Z,11.93
2022-11-05T21:39:10.463Z,11.40
2022-11-05T21:41:44.010Z,12.82
2022-11-05T21:44:10.571Z,12.27
2022-11-05T21:46:37.874Z,18.90
2022-11-05T21:49:04.605Z,12.85
2022-11-05T21:51:51.745Z,12.73
2022-11-05T21:54:36.585Z,13.77
2022-11-05T21:57:27.223Z,15.70
2022-11-05T21:59:58.805Z,14.00
2022-11-05T22:02:28.331Z,17.25
2022-11-05T22:04:57.413Z,16.05
2022-11-05T22:07:31.040Z,14.02
2022-11-05T22:09:58.034Z,14.07
2022-11-05T22:12:25.003Z,14.77
2022-11-05T22:14:52.287Z,12.73
2022-11-05T22:17:22.031Z,15.18
2022-11-05T22:19:48.610Z,16.10
2022-11-05T22:22:15.342Z,15.60
2022-11-05T22:24:44.991Z,18.52
2022-11-05T22:27:14.413Z,15.32
2022-11-05T22:29:41.081Z,13.05
2022-11-05T22:32:17.512Z,13.98
2022-11-05T22:34:46.264Z,13.38
2022-11-05T22:37:13.641Z,13.15
2022-11-05T22:39:43.585Z,17.58
2022-11-05T22:42:10.490Z,17.38
2022-11-05T22:44:39.466Z,13.95
2022-11-05T22:47:07.504Z,14.20
2022-11-05T22:49:34.544Z,13.57
2022-11-05T22:52:01.380Z,10.80
2022-11-05T22:54:28.645Z,16.63
2022-11-05T22:56:57.896Z,15.60
2022-11-05T22:59:24.696Z,14.32
2022-11-05T23:01:56.445Z,13.30
2022-11-05T23:04:26.236Z,11.43
2022-11-05T23:07:14.229Z,14.68
2022-11-05T23:10:01.985Z,13.70
2022-11-05T23:12:34.094Z,12.95
2022-11-05T23:17:48.255Z,12.07
2022-11-05T23:20:37.115Z,14.27
2022-11-05T23:23:22.326Z,14.88
2022-11-05T23:25:49.106Z,13.70
2022-11-05T23:28:22.347Z,13.55
2022-11-05T23:31:07.436Z,10.10
2022-11-05T23:33:34.728Z,13.07
2022-11-05T23:36:20.441Z,17.17
2022-11-05T23:38:47.236Z,10.68
2022-11-05T23:41:32.458Z,27.63
2022-11-05T23:44:20.280Z,11.23
2022-11-05T23:47:05.250Z,12.88
2022-11-05T23:49:31.943Z,12.75
2022-11-05T23:52:00.600Z,12.07
2022-11-05T23:54:27.296Z,10.98
2022-11-05T23:56:53.802Z,13.23
2022-11-05T23:59:20.393Z,13.13
